createdAt,value
2018-04-15T00:02:20.305Z,62.40
2018-04-15T00:04:52.856Z,62.70
2018-04-15T00:07:25.846Z,62.80
2018-04-15T00:09:59.820Z,63.00
2018-04-15T00:12:32.598Z,62.90
2018-04-15T00:15:05.944Z,63.50
2018-04-15T00:17:39.519Z,64.10
2018-04-15T00:20:12.400Z,64.00
2018-04-15T00:22:46.514Z,64.10
2018-04-15T00:25:19.405Z,64.10
2018-04-15T00:27:52.039Z,64.20
2018-04-15T00:30:24.775Z,64.40
2018-04-15T00:32:57.369Z,64.70
2018-04-15T00:35:29.914Z,64.80
2018-04-15T00:38:02.391Z,65.20
2018-04-15T00:40:35.045Z,65.50
2018-04-15T00:43:08.353Z,65.80
2018-04-15T00:45:41.055Z,65.70
2018-04-15T00:48:13.654Z,66.20
2018-04-15T00:50:46.094Z,66.30
2018-04-15T00:53:18.598Z,66.60
2018-04-15T00:55:51.113Z,66.60
2018-04-15T00:58:23.613Z,66.70
2018-04-15T01:00:56.171Z,66.80
2018-04-15T01:03:29.467Z,67.20
2018-04-15T01:06:02.372Z,67.00
2018-04-15T01:08:35.106Z,66.70
2018-04-15T01:11:08.536Z,67.40
2018-04-15T01:13:41.845Z,68.70
2018-04-15T01:16:14.724Z,68.70
2018-04-15T01:18:47.243Z,68.80
2018-04-15T01:21:19.855Z,68.80
2018-04-15T01:23:52.312Z,69.10
2018-04-15T01:26:24.904Z,70.10
2018-04-15T01:28:59.143Z,69.60
2018-04-15T01:31:32.610Z,69.60
2018-04-15T01:34:05.606Z,69.60
2018-04-15T01:36:39.090Z,69.70
2018-04-15T01:39:11.991Z,70.50
2018-04-15T01:41:44.475Z,69.90
2018-04-15T01:44:18.375Z,70.10
2018-04-15T01:46:51.654Z,70.50
2018-04-15T01:49:24.709Z,70.50
2018-04-15T01:51:57.139Z,70.60
2018-04-15T01:54:30.307Z,70.90
2018-04-15T01:57:03.207Z,70.80
2018-04-15T01:59:36.563Z,71.10
2018-04-15T02:02:08.958Z,71.10
2018-04-15T02:04:41.670Z,71.20
2018-04-15T02:07:15.117Z,71.30
2018-04-15T02:09:48.561Z,71.30
2018-04-15T02:12:21.141Z,71.40
2018-04-15T02:14:53.706Z,71.60
2018-04-15T02:17:26.142Z,71.80
2018-04-15T02:19:58.637Z,71.80
2018-04-15T02:22:31.361Z,72.10
2018-04-15T02:25:03.819Z,72.10
2018-04-15T02:27:37.123Z,72.30
2018-04-15T02:30:09.949Z,72.30
2018-04-15T02:32:44.078Z,72.30
2018-04-15T02:35:23.906Z,72.30
2018-04-15T02:37:56.611Z,72.40
2018-04-15T02:40:29.065Z,72.30
2018-04-15T02:43:01.635Z,72.20
2018-04-15T02:45:34.179Z,72.10
2018-04-15T02:48:06.842Z,72.90
2018-04-15T02:50:47.020Z,72.40
2018-04-15T02:53:20.908Z,72.40
2018-04-15T02:55:53.730Z,72.30
2018-04-15T02:58:26.371Z,72.50
2018-04-15T03:01:00.497Z,72.50
2018-04-15T03:03:33.504Z,72.50
2018-04-15T03:06:07.009Z,72.40
2018-04-15T03:08:41.226Z,72.30
2018-04-15T03:11:13.967Z,72.30
2018-04-15T03:13:46.329Z,72.20
2018-04-15T03:16:18.887Z,72.30
2018-04-15T03:18:51.442Z,72.40
2018-04-15T03:21:24.838Z,72.50
2018-04-15T03:23:58.938Z,72.50
2018-04-15T03:26:31.737Z,72.50
2018-04-15T03:29:04.242Z,72.60
2018-04-15T03:31:37.014Z,72.40
2018-04-15T03:34:09.425Z,72.20
2018-04-15T03:36:41.974Z,71.80
2018-04-15T03:39:14.595Z,71.80
2018-04-15T03:41:47.066Z,71.50
2018-04-15T03:44:19.500Z,71.60
2018-04-15T03:46:52.120Z,71.50
2018-04-15T03:49:24.781Z,71.60
2018-04-15T03:51:57.371Z,72.50
2018-04-15T03:54:30.729Z,71.90
2018-04-15T03:57:03.357Z,72.00
2018-04-15T03:59:35.873Z,72.30
2018-04-15T04:02:08.406Z,72.30
2018-04-15T04:04:41.072Z,72.30
2018-04-15T04:07:13.902Z,72.30
2018-04-15T04:09:46.339Z,72.40
2018-04-15T04:12:19.185Z,72.50
2018-04-15T04:14:52.453Z,72.60
2018-04-15T04:17:43.887Z,72.60
2018-04-15T04:20:35.629Z,72.70
2018-04-15T04:23:28.009Z,73.00
2018-04-15T04:26:03.355Z,73.00
2018-04-15T04:28:36.321Z,72.90
2018-04-15T04:31:08.814Z,72.90
2018-04-15T04:33:42.209Z,72.80
2018-04-15T04:36:15.279Z,73.00
2018-04-15T04:38:49.235Z,73.10
2018-04-15T04:41:21.849Z,73.20
2018-04-15T04:43:54.395Z,73.00
2018-04-15T04:46:26.997Z,72.90
2018-04-15T04:48:59.740Z,72.70
2018-04-15T04:51:33.948Z,73.00
2018-04-15T04:54:06.697Z,72.90
2018-04-15T04:56:40.087Z,73.10
2018-04-15T04:59:12.800Z,73.00
2018-04-15T05:01:45.393Z,73.10
2018-04-15T05:04:18.074Z,72.90
2018-04-15T05:06:51.438Z,72.80
2018-04-15T05:09:25.674Z,72.20
2018-04-15T05:11:58.652Z,72.20
2018-04-15T05:14:32.175Z,72.00
2018-04-15T05:17:04.968Z,72.00
2018-04-15T05:19:37.433Z,72.00
2018-04-15T05:22:10.619Z,72.00
2018-04-15T05:24:43.403Z,71.60
2018-04-15T05:27:16.838Z,70.70
2018-04-15T05:29:49.670Z,70.70
2018-04-15T05:32:23.074Z,70.60
2018-04-15T05:34:55.749Z,70.60
2018-04-15T05:37:28.857Z,70.40
2018-04-15T05:40:01.708Z,70.40
2018-04-15T05:42:35.847Z,70.70
2018-04-15T05:45:08.460Z,70.40
2018-04-15T05:47:40.951Z,70.30
2018-04-15T05:50:13.560Z,70.20
2018-04-15T05:52:46.857Z,69.80
2018-04-15T05:55:20.426Z,68.80
2018-04-15T05:57:53.002Z,68.80
2018-04-15T06:00:25.597Z,68.60
2018-04-15T06:02:58.392Z,68.80
2018-04-15T06:05:30.772Z,69.70
2018-04-15T06:08:03.329Z,69.90
2018-04-15T06:10:35.858Z,69.30
2018-04-15T06:13:09.062Z,68.50
2018-04-15T06:15:41.991Z,68.40
2018-04-15T06:18:15.129Z,68.10
2018-04-15T06:20:47.955Z,68.00
2018-04-15T06:23:20.490Z,67.30
2018-04-15T06:25:53.118Z,67.00
2018-04-15T06:28:25.598Z,66.00
2018-04-15T06:30:59.083Z,65.30
2018-04-15T06:33:32.208Z,65.30
2018-04-15T06:36:04.851Z,65.50
2018-04-15T06:38:37.202Z,64.90
2018-04-15T06:41:09.769Z,65.10
2018-04-15T06:43:42.180Z,64.30
2018-04-15T06:46:14.707Z,63.00
2018-04-15T06:48:47.097Z,62.30
2018-04-15T06:51:20.554Z,62.20
2018-04-15T06:53:53.966Z,61.70
2018-04-15T06:56:28.123Z,58.80
2018-04-15T06:59:01.609Z,57.90
2018-04-15T07:01:34.423Z,57.90
2018-04-15T07:04:07.664Z,58.30
2018-04-15T07:06:41.019Z,57.90
2018-04-15T07:09:14.275Z,57.30
2018-04-15T07:11:47.514Z,57.10
2018-04-15T07:14:20.149Z,57.60
2018-04-15T07:16:53.417Z,56.50
2018-04-15T07:19:26.818Z,53.70
2018-04-15T07:21:59.773Z,53.60
2018-04-15T07:24:32.202Z,53.60
2018-04-15T07:27:05.593Z,51.30
2018-04-15T07:29:39.135Z,51.40
2018-04-15T07:32:11.997Z,51.40
2018-04-15T07:34:45.229Z,48.80
2018-04-15T07:37:17.946Z,48.80
2018-04-15T07:39:50.545Z,48.20
2018-04-15T07:42:23.955Z,46.40
2018-04-15T07:44:56.909Z,46.40
2018-04-15T07:47:31.144Z,45.30
2018-04-15T07:50:03.724Z,45.20
2018-04-15T07:52:36.309Z,44.40
2018-04-15T07:55:09.599Z,44.30
2018-04-15T07:57:43.303Z,44.20
2018-04-15T08:00:15.851Z,43.10
2018-04-15T08:02:49.145Z,45.40
2018-04-15T08:05:22.474Z,42.80
2018-04-15T08:07:55.329Z,42.60
2018-04-15T08:10:28.460Z,41.30
2018-04-15T08:13:01.729Z,39.50
2018-04-15T08:15:34.382Z,40.50
2018-04-15T08:18:07.060Z,40.10
2018-04-15T08:20:40.603Z,40.20
2018-04-15T08:23:13.090Z,40.20
2018-04-15T08:25:46.360Z,40.70
2018-04-15T08:28:19.025Z,40.70
2018-04-15T08:30:51.730Z,39.50
2018-04-15T08:33:24.964Z,40.90
2018-04-15T08:35:57.982Z,40.90
2018-04-15T08:38:30.450Z,41.90
2018-04-15T08:41:03.001Z,41.70
2018-04-15T08:43:37.157Z,42.00
2018-04-15T08:46:10.121Z,42.00
2018-04-15T08:48:43.570Z,42.70
2018-04-15T09:01:08.525Z,45.00
2018-04-15T09:03:41.894Z,46.70
2018-04-15T09:06:16.027Z,44.50
2018-04-15T09:08:48.695Z,44.50
2018-04-15T09:11:21.250Z,45.20
2018-04-15T09:13:54.476Z,44.20
2018-04-15T09:16:26.984Z,42.70
2018-04-15T09:19:00.412Z,43.70
2018-04-15T09:21:33.871Z,42.50
2018-04-15T09:24:06.942Z,42.80
2018-04-15T09:26:40.327Z,42.30
2018-04-15T09:29:13.549Z,41.20
2018-04-15T09:31:47.715Z,42.30
2018-04-15T09:34:20.350Z,42.30
2018-04-15T09:36:54.389Z,39.20
2018-04-15T09:39:27.880Z,39.60
2018-04-15T09:42:00.464Z,39.50
2018-04-15T09:44:33.013Z,40.30
2018-04-15T09:47:06.200Z,40.80
2018-04-15T09:49:39.393Z,41.30
2018-04-15T09:52:12.027Z,41.30
2018-04-15T09:54:45.327Z,43.00
2018-04-15T09:57:20.341Z,42.30
2018-04-15T09:59:53.137Z,42.30
2018-04-15T10:02:25.597Z,42.50
2018-04-15T10:04:59.115Z,41.40
2018-04-15T10:07:32.440Z,41.20
2018-04-15T10:10:04.969Z,41.80
2018-04-15T10:12:39.198Z,42.40
2018-04-15T10:15:12.531Z,41.10
2018-04-15T10:17:45.287Z,41.10
2018-04-15T10:20:18.473Z,42.60
2018-04-15T10:22:51.780Z,41.10
2018-04-15T10:25:25.161Z,40.80
2018-04-15T10:27:57.572Z,39.90
2018-04-15T10:30:30.879Z,40.30
2018-04-15T10:33:03.691Z,40.40
2018-04-15T10:35:37.759Z,40.30
2018-04-15T10:38:10.326Z,40.30
2018-04-15T10:40:43.587Z,42.50
2018-04-15T10:43:16.045Z,42.40
2018-04-15T10:45:48.515Z,43.00
2018-04-15T10:48:21.793Z,42.40
2018-04-15T10:50:55.080Z,42.20
2018-04-15T10:53:27.549Z,42.10
2018-04-15T10:55:59.949Z,43.10
2018-04-15T10:58:33.449Z,42.90
2018-04-15T11:01:07.777Z,41.50
2018-04-15T11:03:40.254Z,41.50
2018-04-15T11:06:12.707Z,42.30
2018-04-15T11:08:45.248Z,43.50
2018-04-15T11:11:18.533Z,42.10
2018-04-15T11:13:50.941Z,41.70
2018-04-15T11:16:24.217Z,43.30
2018-04-15T11:18:57.721Z,43.80
2018-04-15T11:21:31.339Z,43.80
2018-04-15T11:24:04.665Z,44.30
2018-04-15T11:26:37.237Z,43.50
2018-04-15T11:29:11.436Z,45.80
2018-04-15T11:31:44.114Z,45.70
2018-04-15T11:34:17.432Z,45.80
2018-04-15T11:36:50.504Z,45.60
2018-04-15T11:39:23.405Z,45.70
2018-04-15T11:41:55.882Z,45.10
2018-04-15T11:44:29.985Z,43.40
2018-04-15T11:47:04.214Z,43.40
2018-04-15T11:49:43.386Z,45.10
2018-04-15T11:52:18.232Z,44.40
2018-04-15T11:54:50.667Z,44.60
2018-04-15T11:57:24.039Z,44.50
2018-04-15T11:59:57.278Z,43.00
2018-04-15T12:02:32.035Z,42.90
2018-04-15T12:05:06.960Z,43.10
2018-04-15T12:07:40.544Z,43.40
2018-04-15T12:10:13.876Z,43.90
2018-04-15T12:12:46.449Z,43.90
2018-04-15T12:15:19.841Z,43.20
2018-04-15T12:17:53.129Z,41.00
2018-04-15T12:20:26.448Z,42.00
2018-04-15T12:22:59.713Z,41.60
2018-04-15T12:25:32.982Z,42.40
2018-04-15T12:28:06.194Z,41.90
2018-04-15T12:30:38.931Z,41.90
2018-04-15T12:33:12.281Z,42.60
2018-04-15T12:35:44.777Z,41.60
2018-04-15T12:38:18.034Z,41.10
2018-04-15T12:40:51.399Z,41.10
2018-04-15T12:43:24.552Z,41.70
2018-04-15T12:45:58.032Z,43.00
2018-04-15T12:48:30.728Z,43.10
2018-04-15T12:51:03.175Z,43.30
2018-04-15T12:53:36.593Z,43.20
2018-04-15T12:56:09.780Z,43.90
2018-04-15T12:58:42.510Z,43.80
2018-04-15T13:01:17.001Z,42.60
2018-04-15T13:03:49.407Z,42.90
2018-04-15T13:06:21.911Z,43.90
2018-04-15T13:08:55.261Z,44.60
2018-04-15T13:11:28.703Z,44.80
2018-04-15T13:14:02.071Z,44.40
2018-04-15T13:16:34.620Z,44.80
2018-04-15T13:19:07.889Z,45.70
2018-04-15T13:21:41.460Z,45.70
2018-04-15T13:24:14.765Z,46.20
2018-04-15T13:26:48.196Z,45.10
2018-04-15T13:29:21.553Z,45.50
2018-04-15T13:31:54.210Z,45.40
2018-04-15T13:34:27.658Z,45.00
2018-04-15T13:37:00.918Z,45.60
2018-04-15T13:39:33.423Z,45.60
2018-04-15T13:42:05.832Z,46.10
2018-04-15T13:44:38.995Z,45.40
2018-04-15T13:47:11.551Z,45.40
2018-04-15T13:49:44.778Z,45.90
2018-04-15T13:52:19.055Z,46.30
2018-04-15T13:54:53.198Z,46.60
2018-04-15T13:57:26.358Z,46.60
2018-04-15T14:00:00.442Z,46.30
2018-04-15T14:02:33.228Z,46.20
2018-04-15T14:05:07.344Z,44.80
2018-04-15T14:07:40.868Z,45.00
2018-04-15T14:10:13.494Z,45.00
2018-04-15T14:12:46.863Z,45.00
2018-04-15T14:15:20.942Z,45.40
2018-04-15T14:17:54.352Z,45.60
2018-04-15T14:20:27.128Z,45.50
2018-04-15T14:23:00.425Z,46.70
2018-04-15T14:25:34.512Z,45.90
2018-04-15T14:28:08.123Z,45.90
2018-04-15T14:30:41.507Z,46.30
2018-04-15T14:33:14.002Z,46.30
2018-04-15T14:35:47.409Z,46.80
2018-04-15T14:38:20.603Z,47.60
2018-04-15T14:40:54.037Z,47.50
2018-04-15T14:43:28.117Z,46.90
2018-04-15T14:46:01.109Z,46.90
2018-04-15T14:48:35.355Z,47.10
2018-04-15T14:51:08.901Z,47.60
2018-04-15T14:53:41.481Z,47.50
2018-04-15T14:56:15.937Z,48.40
2018-04-15T14:58:49.630Z,48.40
2018-04-15T15:01:23.581Z,47.60
2018-04-15T15:03:56.245Z,47.60
2018-04-15T15:06:30.507Z,48.20
2018-04-15T15:09:03.417Z,48.20
2018-04-15T15:11:36.500Z,48.20
2018-04-15T15:14:08.974Z,48.20
2018-04-15T15:16:42.449Z,48.10
2018-04-15T15:19:15.748Z,48.10
2018-04-15T15:21:48.970Z,48.70
2018-04-15T15:24:22.339Z,48.40
2018-04-15T15:26:56.401Z,49.00
2018-04-15T15:29:29.027Z,49.00
2018-04-15T15:32:02.232Z,49.00
2018-04-15T15:34:36.393Z,49.40
2018-04-15T15:37:09.070Z,49.40
2018-04-15T15:39:42.427Z,50.40
2018-04-15T15:42:15.150Z,50.40
2018-04-15T15:44:48.485Z,50.80
2018-04-15T15:47:20.964Z,50.60
2018-04-15T15:49:53.471Z,51.10
2018-04-15T15:52:26.823Z,51.40
2018-04-15T15:55:00.943Z,51.70
2018-04-15T15:57:33.681Z,51.70
2018-04-15T16:00:07.145Z,51.30
2018-04-15T16:02:39.498Z,50.50
2018-04-15T16:05:12.669Z,51.50
2018-04-15T16:07:46.101Z,51.80
2018-04-15T16:10:18.861Z,51.80
2018-04-15T16:12:51.245Z,52.20
2018-04-15T16:15:23.709Z,53.70
2018-04-15T16:17:57.023Z,54.10
2018-04-15T16:20:29.891Z,54.10
2018-04-15T16:23:03.182Z,54.20
2018-04-15T16:25:35.793Z,54.40
2018-04-15T16:28:09.787Z,54.60
2018-04-15T16:30:42.458Z,54.60
2018-04-15T16:33:14.846Z,54.60
2018-04-15T16:35:47.304Z,54.50
2018-04-15T16:38:19.703Z,55.10
2018-04-15T16:40:52.923Z,55.00
2018-04-15T16:43:25.629Z,54.90
2018-04-15T16:45:59.113Z,54.20
2018-04-15T16:48:32.459Z,54.50
2018-04-15T16:51:05.891Z,54.70
2018-04-15T16:53:39.931Z,54.30
2018-04-15T16:56:13.395Z,54.50
2018-04-15T16:58:46.796Z,54.60
2018-04-15T17:01:19.618Z,54.60
2018-04-15T17:03:52.909Z,56.20
2018-04-15T17:06:25.613Z,56.20
2018-04-15T17:08:58.937Z,56.60
2018-04-15T17:11:32.133Z,55.50
2018-04-15T17:14:05.590Z,56.10
2018-04-15T17:16:38.959Z,57.20
2018-04-15T17:19:11.628Z,57.20
2018-04-15T17:21:44.273Z,57.70
2018-04-15T17:24:18.352Z,58.20
2018-04-15T17:26:52.165Z,58.10
2018-04-15T17:29:24.815Z,58.20
2018-04-15T17:31:58.309Z,58.30
2018-04-15T17:34:32.413Z,58.60
2018-04-15T17:37:05.269Z,58.50
2018-04-15T17:39:39.605Z,57.10
2018-04-15T17:42:12.758Z,57.00
2018-04-15T17:44:46.852Z,59.20
2018-04-15T17:47:19.586Z,59.10
2018-04-15T17:49:53.775Z,58.50
2018-04-15T17:52:27.360Z,58.50
2018-04-15T17:54:59.993Z,58.50
2018-04-15T17:57:33.820Z,59.30
2018-04-15T18:00:07.066Z,59.30
2018-04-15T18:02:40.239Z,59.20
2018-04-15T18:05:14.167Z,59.60
2018-04-15T18:07:46.976Z,59.60
2018-04-15T18:10:20.218Z,60.10
2018-04-15T18:12:53.627Z,59.10
2018-04-15T18:15:27.075Z,58.80
2018-04-15T18:18:00.561Z,58.20
2018-04-15T18:20:34.492Z,58.90
2018-04-15T18:23:07.167Z,59.40
2018-04-15T18:25:40.624Z,60.60
2018-04-15T18:28:20.810Z,60.60
2018-04-15T18:30:54.847Z,60.50
2018-04-15T18:33:28.597Z,61.10
2018-04-15T18:36:01.497Z,61.10
2018-04-15T18:38:35.519Z,61.70
2018-04-15T18:41:09.325Z,61.80
2018-04-15T18:43:43.262Z,61.80
2018-04-15T18:46:17.555Z,61.60
2018-04-15T18:48:53.413Z,61.90
2018-04-15T18:51:28.452Z,61.90
2018-04-15T18:54:03.850Z,62.10
2018-04-15T18:56:38.232Z,62.50
2018-04-15T18:59:12.877Z,62.90
2018-04-15T19:01:48.223Z,62.40
2018-04-15T19:04:23.937Z,62.20
2018-04-15T19:06:59.174Z,62.10
2018-04-15T19:09:35.237Z,62.20
2018-04-15T19:12:11.390Z,62.10
2018-04-15T19:14:47.630Z,62.10
2018-04-15T19:17:22.683Z,62.10
2018-04-15T19:19:57.438Z,61.80
2018-04-15T19:22:31.466Z,61.70
2018-04-15T19:25:06.986Z,61.90
2018-04-15T19:27:42.840Z,62.40
2018-04-15T19:30:17.463Z,62.50
2018-04-15T19:32:52.129Z,62.70
2018-04-15T19:35:26.334Z,63.40
2018-04-15T19:38:02.378Z,63.90
2018-04-15T19:40:37.607Z,63.90
2018-04-15T19:43:13.560Z,64.10
2018-04-15T19:45:49.357Z,64.10
2018-04-15T19:48:25.640Z,64.10
2018-04-15T19:51:02.008Z,64.20
2018-04-15T19:53:37.647Z,64.10
2018-04-15T19:56:12.827Z,64.20
2018-04-15T19:58:48.570Z,64.30
2018-04-15T20:01:23.845Z,64.40
2018-04-15T20:03:59.309Z,64.30
2018-04-15T20:06:34.963Z,64.50
2018-04-15T20:09:08.536Z,64.50
2018-04-15T20:11:43.554Z,64.60
2018-04-15T20:14:17.125Z,64.60
2018-04-15T20:16:49.941Z,64.90
2018-04-15T20:19:22.398Z,65.00
2018-04-15T20:21:55.842Z,64.90
2018-04-15T20:24:28.318Z,64.80
2018-04-15T20:27:02.586Z,64.80
2018-04-15T20:29:35.106Z,64.80
2018-04-15T20:32:08.353Z,65.20
2018-04-15T20:34:41.801Z,65.20
2018-04-15T20:37:15.024Z,66.40
2018-04-15T20:39:48.421Z,66.50
2018-04-15T20:42:21.042Z,66.50
2018-04-15T20:44:54.445Z,66.80
2018-04-15T20:47:28.667Z,67.40
2018-04-15T20:50:02.115Z,68.30
2018-04-15T20:52:34.698Z,68.20
2018-04-15T20:55:07.220Z,68.40
2018-04-15T20:57:39.695Z,69.30
2018-04-15T21:00:12.195Z,69.40
2018-04-15T21:02:44.588Z,69.20
2018-04-15T21:05:17.793Z,69.80
2018-04-15T21:07:50.470Z,69.70
2018-04-15T21:10:23.799Z,69.90
2018-04-15T21:12:57.836Z,70.20
2018-04-15T21:15:31.241Z,70.50
2018-04-15T21:18:03.920Z,70.50
2018-04-15T21:20:37.117Z,70.80
2018-04-15T21:23:09.725Z,70.90
2018-04-15T21:25:42.170Z,71.00
2018-04-15T21:28:16.254Z,71.40
2018-04-15T21:30:48.954Z,71.40
2018-04-15T21:33:22.044Z,71.00
2018-04-15T21:35:55.486Z,71.00
2018-04-15T21:38:28.939Z,72.20
2018-04-15T21:41:01.634Z,71.60
2018-04-15T21:43:34.150Z,71.90
2018-04-15T21:46:08.276Z,72.30
2018-04-15T21:48:41.011Z,72.30
2018-04-15T21:51:15.163Z,72.70
2018-04-15T21:53:47.833Z,72.70
2018-04-15T21:56:20.468Z,72.60
2018-04-15T21:58:53.829Z,73.70
2018-04-15T22:01:27.149Z,72.30
2018-04-15T22:04:01.174Z,72.40
2018-04-15T22:06:34.050Z,72.30
2018-04-15T22:09:07.437Z,72.10
2018-04-15T22:11:59.368Z,71.90
2018-04-15T22:14:32.587Z,71.70
2018-04-15T22:17:05.136Z,71.40
2018-04-15T22:19:39.315Z,71.40
2018-04-15T22:22:19.057Z,71.40
2018-04-15T22:24:51.717Z,71.30
2018-04-15T22:27:25.773Z,71.00
2018-04-15T22:29:58.312Z,71.00
2018-04-15T22:32:31.527Z,71.00
2018-04-15T22:35:04.039Z,70.90
2018-04-15T22:37:36.481Z,70.80
2018-04-15T22:40:08.891Z,70.80
2018-04-15T22:42:41.992Z,71.00
2018-04-15T22:45:14.636Z,70.90
2018-04-15T22:47:53.171Z,71.00
2018-04-15T22:50:31.656Z,70.70
2018-04-15T22:53:05.663Z,71.20
2018-04-15T22:55:38.483Z,71.20
2018-04-15T22:58:11.031Z,71.10
2018-04-15T23:00:43.498Z,71.00
2018-04-15T23:03:15.962Z,70.80
2018-04-15T23:05:48.437Z,70.70
2018-04-15T23:08:20.950Z,70.90
2018-04-15T23:10:54.311Z,71.70
2018-04-15T23:13:26.975Z,71.20
2018-04-15T23:15:59.425Z,71.60
2018-04-15T23:18:32.751Z,70.60
2018-04-15T23:21:06.123Z,70.80
2018-04-15T23:23:38.847Z,70.70
2018-04-15T23:26:11.448Z,70.60
2018-04-15T23:28:43.923Z,70.30
2018-04-15T23:31:16.554Z,70.40
2018-04-15T23:33:49.869Z,70.20
2018-04-15T23:36:23.231Z,70.30
2018-04-15T23:38:55.634Z,70.30
2018-04-15T23:41:28.945Z,70.20
2018-04-15T23:44:01.665Z,70.20
2018-04-15T23:46:34.134Z,70.10
2018-04-15T23:49:06.700Z,70.30
2018-04-15T23:51:39.173Z,71.00
2018-04-15T23:54:11.648Z,70.10
2018-04-15T23:56:50.276Z,69.70
2018-04-15T23:59:22.833Z,69.80
